BIL weather

Billings Logan International Airport
Billings, Montana, United States

Public forecast

Using degrees Fahrenheit for public forecast. Weather courtesy of forecast.io.

METAR (pilot weather report)

Retrieved 2019/05/22 15:53 UTC (20 minutes ago):

KBIL 221553Z 36009KT 10SM SCT065 SCT110 OVC200 11/04 A2988 RMK AO2 SLP121 T01110044

TAF (pilot weather forecast)

Forecast is more than 6 hours old.

Retrieved 2019/05/22 06:30 UTC (10 hours ago):

TAF KBIL 220528Z 2206/2306 04010KT P6SM -RA SCT006 OVC018 TEMPO 2206/2209 4SM -RA BR OVC004 FM220900 03010KT 4SM -RA BR OVC004 FM221700 04010KT P6SM -RA SCT003 OVC012 FM230100 05008KT P6SM VCFG SCT002 OVC020